createdAt,value
2022-07-28T00:01:54.827Z,10.37
2022-07-28T00:04:40.421Z,10.37
2022-07-28T00:07:26.327Z,10.27
2022-07-28T00:10:12.803Z,10.38
2022-07-28T00:12:59.680Z,10.28
2022-07-28T00:15:45.143Z,10.14
2022-07-28T00:18:30.648Z,10.16
2022-07-28T00:21:16.229Z,10.03
2022-07-28T00:24:01.861Z,10.11
2022-07-28T00:26:47.229Z,10.07
2022-07-28T00:29:49.850Z,10.00
2022-07-28T00:32:36.033Z,10.01
2022-07-28T00:35:30.253Z,9.90
2022-07-28T00:38:16.664Z,9.90
2022-07-28T00:41:12.703Z,9.99
2022-07-28T00:43:58.061Z,9.99
2022-07-28T00:46:44.148Z,9.83
2022-07-28T00:49:29.727Z,9.90
2022-07-28T00:52:18.078Z,9.96
2022-07-28T00:55:05.317Z,9.86
2022-07-28T00:57:50.798Z,9.74
2022-07-28T01:00:36.325Z,9.57
2022-07-28T01:03:22.704Z,9.64
2022-07-28T01:06:26.818Z,9.54
2022-07-28T01:09:48.966Z,9.40
2022-07-28T01:12:55.627Z,9.34
2022-07-28T01:15:48.454Z,9.37
2022-07-28T01:18:43.098Z,9.42
2022-07-28T01:21:35.058Z,9.27
2022-07-28T01:24:27.426Z,9.39
2022-07-28T01:27:29.678Z,9.38
2022-07-28T01:30:27.837Z,9.48
2022-07-28T01:33:21.610Z,9.53
2022-07-28T01:36:12.962Z,9.50
2022-07-28T01:39:00.399Z,9.53
2022-07-28T01:41:47.538Z,9.49
2022-07-28T01:44:37.369Z,9.49
2022-07-28T01:47:24.422Z,9.43
2022-07-28T01:50:13.150Z,9.43
2022-07-28T01:52:59.147Z,9.44
2022-07-28T01:55:46.125Z,9.46
2022-07-28T01:58:34.075Z,9.38
2022-07-28T02:01:21.216Z,9.37
2022-07-28T02:04:08.068Z,9.44
2022-07-28T02:06:55.559Z,9.44
2022-07-28T02:09:44.073Z,9.38
2022-07-28T02:12:31.730Z,9.35
2022-07-28T02:15:18.887Z,9.37
2022-07-28T02:18:05.844Z,9.29
2022-07-28T02:20:53.005Z,9.36
2022-07-28T02:23:41.122Z,9.28
2022-07-28T02:26:32.554Z,9.31
2022-07-28T02:29:49.328Z,9.29
2022-07-28T02:32:48.397Z,9.27
2022-07-28T02:35:37.648Z,9.29
2022-07-28T02:38:30.807Z,9.33
2022-07-28T02:41:25.597Z,9.27
2022-07-28T02:44:17.569Z,9.34
2022-07-28T02:47:07.463Z,9.27
2022-07-28T02:49:55.334Z,9.06
2022-07-28T02:52:43.657Z,9.14
2022-07-28T02:55:30.988Z,9.01
2022-07-28T02:58:20.960Z,9.03
2022-07-28T03:01:07.004Z,9.02
2022-07-28T03:03:55.199Z,9.00
2022-07-28T03:06:41.820Z,9.11
2022-07-28T03:09:28.831Z,8.95
2022-07-28T03:12:14.974Z,9.11
2022-07-28T03:15:00.166Z,9.13
2022-07-28T03:17:45.579Z,9.07
2022-07-28T03:20:31.830Z,9.12
2022-07-28T03:23:17.441Z,9.16
2022-07-28T03:26:09.859Z,9.10
2022-07-28T03:28:57.586Z,9.03
2022-07-28T03:31:47.184Z,8.95
2022-07-28T03:34:32.533Z,8.89
2022-07-28T03:37:23.605Z,8.88
2022-07-28T03:40:11.161Z,8.79
2022-07-28T03:42:59.504Z,8.79
2022-07-28T03:45:46.839Z,8.82
2022-07-28T03:48:34.657Z,8.85
2022-07-28T03:51:20.340Z,8.84
2022-07-28T03:54:05.945Z,8.68
2022-07-28T03:56:51.239Z,8.81
2022-07-28T03:59:36.776Z,8.89
2022-07-28T04:02:23.342Z,8.95
2022-07-28T04:05:13.253Z,8.96
2022-07-28T04:07:58.765Z,9.05
2022-07-28T04:10:44.078Z,9.17
2022-07-28T04:13:31.948Z,9.33
2022-07-28T04:16:17.432Z,9.44
2022-07-28T04:19:03.689Z,9.51
2022-07-28T04:21:49.213Z,9.67
2022-07-28T04:24:34.580Z,9.76
2022-07-28T04:27:20.134Z,9.77
2022-07-28T04:30:08.699Z,9.87
2022-07-28T04:32:56.045Z,10.04
2022-07-28T04:35:41.772Z,10.10
2022-07-28T04:38:27.153Z,10.23
2022-07-28T04:41:12.514Z,10.37
2022-07-28T04:43:59.460Z,10.50
2022-07-28T04:46:45.068Z,10.76
2022-07-28T04:49:30.636Z,10.94
2022-07-28T04:52:21.980Z,11.25
2022-07-28T04:55:07.910Z,11.43
2022-07-28T04:57:53.253Z,11.59
2022-07-28T05:00:39.930Z,11.66
2022-07-28T05:03:25.361Z,11.83
2022-07-28T05:06:10.809Z,11.97
2022-07-28T05:08:56.152Z,11.98
2022-07-28T05:11:42.231Z,11.86
2022-07-28T05:14:28.050Z,11.93
2022-07-28T05:17:13.658Z,11.96
2022-07-28T05:19:59.600Z,11.71
2022-07-28T05:22:48.205Z,11.74
2022-07-28T05:25:33.683Z,11.58
2022-07-28T05:28:18.966Z,11.49
2022-07-28T05:31:04.624Z,11.55
2022-07-28T05:33:50.258Z,11.56
2022-07-28T05:36:37.558Z,11.78
2022-07-28T05:39:24.378Z,12.00
2022-07-28T05:42:09.942Z,12.25
2022-07-28T05:44:55.577Z,12.62
2022-07-28T05:47:52.478Z,12.87
2022-07-28T05:50:37.987Z,13.21
2022-07-28T05:53:24.685Z,13.42
2022-07-28T05:56:10.024Z,13.60
2022-07-28T05:58:55.758Z,14.05
2022-07-28T06:01:41.147Z,14.69
2022-07-28T06:04:27.872Z,15.19
2022-07-28T06:07:13.738Z,15.29
2022-07-28T06:09:59.269Z,15.61
2022-07-28T06:12:50.279Z,16.12
2022-07-28T06:15:35.612Z,16.45
2022-07-28T06:18:22.302Z,16.79
2022-07-28T06:21:07.605Z,17.19
2022-07-28T06:23:53.253Z,16.92
2022-07-28T06:26:44.384Z,17.13
2022-07-28T06:29:30.334Z,16.95
2022-07-28T06:32:17.026Z,16.68
2022-07-28T06:35:02.835Z,16.83
2022-07-28T06:37:49.652Z,16.54
2022-07-28T06:40:35.696Z,16.56
2022-07-28T06:43:21.296Z,16.55
2022-07-28T06:46:07.370Z,16.83
2022-07-28T06:48:53.208Z,16.76
2022-07-28T06:51:38.996Z,16.82
2022-07-28T06:54:24.295Z,17.14
2022-07-28T06:57:09.924Z,17.38
2022-07-28T06:59:55.277Z,17.65
2022-07-28T07:02:42.700Z,17.84
2022-07-28T07:05:31.841Z,17.80
2022-07-28T07:08:17.240Z,17.69
2022-07-28T07:11:02.649Z,17.77
2022-07-28T07:13:48.332Z,17.94
2022-07-28T07:16:35.086Z,18.04
2022-07-28T07:19:21.595Z,17.69
2022-07-28T07:22:07.186Z,17.64
2022-07-28T07:24:56.818Z,17.87
2022-07-28T07:27:43.892Z,18.44
2022-07-28T07:30:29.741Z,18.18
2022-07-28T07:33:15.583Z,19.03
2022-07-28T07:36:01.077Z,19.51
2022-07-28T07:38:46.573Z,19.07
2022-07-28T07:41:31.936Z,19.18
2022-07-28T07:44:18.154Z,19.80
2022-07-28T07:47:04.101Z,20.42
2022-07-28T07:49:49.563Z,20.09
2022-07-28T07:52:35.332Z,20.69
2022-07-28T07:55:20.909Z,21.34
2022-07-28T07:58:06.607Z,21.03
2022-07-28T08:00:53.184Z,20.58
2022-07-28T08:03:39.059Z,20.85
2022-07-28T08:06:26.634Z,20.89
2022-07-28T08:09:12.374Z,20.94
2022-07-28T08:11:58.011Z,20.60
2022-07-28T08:14:43.757Z,20.73
2022-07-28T08:17:33.726Z,20.49
2022-07-28T08:20:19.337Z,20.94
2022-07-28T08:23:04.852Z,21.59
2022-07-28T08:25:50.600Z,21.21
2022-07-28T08:28:36.214Z,21.69
2022-07-28T08:31:22.174Z,22.09
2022-07-28T08:34:26.376Z,21.70
2022-07-28T08:37:13.184Z,20.57
2022-07-28T08:39:58.600Z,20.35
2022-07-28T08:42:50.296Z,20.18
2022-07-28T08:45:37.324Z,21.01
2022-07-28T08:48:23.495Z,22.25
2022-07-28T08:51:11.276Z,22.89
2022-07-28T08:53:57.385Z,24.63
2022-07-28T08:56:47.906Z,24.37
2022-07-28T08:59:34.744Z,24.51
2022-07-28T09:02:20.554Z,24.28
2022-07-28T09:05:06.691Z,24.70
2022-07-28T09:07:55.463Z,25.67
2022-07-28T09:10:41.404Z,25.57
2022-07-28T09:13:27.257Z,26.62
2022-07-28T09:16:15.075Z,27.05
2022-07-28T09:19:00.698Z,28.32
2022-07-28T09:21:46.239Z,27.12
2022-07-28T09:24:39.711Z,27.61
2022-07-28T09:27:25.394Z,26.92
2022-07-28T09:30:12.074Z,27.77
2022-07-28T09:33:42.962Z,27.58
2022-07-28T09:36:38.585Z,28.65
2022-07-28T09:39:32.026Z,29.10
2022-07-28T09:42:20.837Z,29.33
2022-07-28T09:45:24.824Z,28.72
2022-07-28T09:48:14.654Z,30.93
2022-07-28T09:51:12.629Z,29.97
2022-07-28T09:54:13.522Z,29.76
2022-07-28T09:56:59.657Z,28.98
2022-07-28T09:59:50.687Z,27.74
2022-07-28T10:02:41.099Z,25.89
2022-07-28T10:05:40.943Z,25.17
2022-07-28T10:08:43.509Z,23.70
2022-07-28T10:11:30.483Z,24.28
2022-07-28T10:14:18.570Z,24.65
2022-07-28T10:17:06.297Z,26.03
2022-07-28T10:19:54.239Z,24.83
2022-07-28T10:22:43.405Z,29.58
2022-07-28T10:25:30.695Z,33.50
2022-07-28T10:28:19.230Z,32.53
2022-07-28T10:31:09.589Z,33.65
2022-07-28T10:33:58.273Z,33.01
2022-07-28T10:36:44.691Z,33.27
2022-07-28T10:39:41.274Z,35.19
2022-07-28T10:42:27.465Z,34.03
2022-07-28T10:45:13.965Z,32.35
2022-07-28T10:47:59.832Z,34.63
2022-07-28T10:50:46.766Z,32.08
2022-07-28T10:53:47.065Z,32.38
2022-07-28T10:56:46.421Z,33.97
2022-07-28T10:59:58.716Z,34.47
2022-07-28T11:02:52.901Z,32.14
2022-07-28T11:05:40.599Z,35.26
2022-07-28T11:08:26.051Z,32.22
2022-07-28T11:11:11.592Z,32.65
2022-07-28T11:14:22.729Z,32.99
2022-07-28T11:17:11.274Z,36.49
2022-07-28T11:23:46.139Z,30.98
2022-07-28T11:26:36.608Z,32.07
2022-07-28T11:29:22.540Z,33.84
2022-07-28T11:32:08.190Z,30.18
2022-07-28T11:35:09.733Z,29.64
2022-07-28T11:38:00.886Z,30.28
2022-07-28T11:40:48.890Z,32.05
2022-07-28T11:43:37.000Z,33.78
2022-07-28T11:46:24.223Z,35.89
2022-07-28T11:49:18.143Z,34.84
2022-07-28T11:52:16.815Z,33.65
2022-07-28T11:55:03.396Z,35.01
2022-07-28T11:57:52.066Z,34.85
2022-07-28T12:00:39.297Z,35.56
2022-07-28T12:03:49.510Z,35.45
2022-07-28T12:06:42.488Z,34.87
2022-07-28T12:09:42.033Z,33.82
2022-07-28T12:12:28.646Z,34.51
2022-07-28T12:15:17.370Z,35.40
2022-07-28T12:18:02.714Z,36.06
2022-07-28T12:20:52.731Z,36.50
2022-07-28T12:23:45.525Z,35.09
2022-07-28T12:26:41.296Z,34.04
2022-07-28T12:29:35.534Z,34.48
2022-07-28T12:32:30.487Z,34.05
2022-07-28T12:35:17.224Z,33.79
2022-07-28T12:38:02.818Z,35.92
2022-07-28T12:40:48.094Z,37.41
2022-07-28T12:43:34.219Z,32.65
2022-07-28T12:46:23.674Z,32.25
2022-07-28T12:49:21.809Z,32.29
2022-07-28T12:52:21.802Z,32.38
2022-07-28T12:55:32.879Z,32.48
2022-07-28T12:58:26.883Z,34.24
2022-07-28T13:01:12.865Z,34.51
2022-07-28T13:03:58.568Z,34.49
2022-07-28T13:06:55.368Z,36.75
2022-07-28T13:09:59.956Z,36.19
2022-07-28T13:13:00.318Z,36.51
2022-07-28T13:16:05.914Z,36.58
2022-07-28T13:18:54.092Z,35.69
2022-07-28T13:21:57.102Z,39.52
2022-07-28T13:24:44.519Z,37.67
2022-07-28T13:27:32.254Z,38.55
2022-07-28T13:30:17.793Z,37.81
2022-07-28T13:33:03.104Z,37.51
2022-07-28T13:35:50.270Z,38.35
2022-07-28T13:38:35.738Z,37.54
2022-07-28T13:41:21.155Z,36.95
2022-07-28T13:44:06.750Z,35.16
2022-07-28T13:46:52.264Z,35.28
2022-07-28T13:49:37.972Z,35.13
2022-07-28T13:52:32.852Z,36.51
2022-07-28T13:55:23.050Z,37.76
2022-07-28T13:58:09.077Z,37.89
2022-07-28T14:00:54.600Z,37.40
2022-07-28T14:03:56.120Z,38.61
2022-07-28T14:06:44.781Z,38.17
2022-07-28T14:09:30.517Z,35.00
2022-07-28T14:12:16.142Z,35.49
2022-07-28T14:15:01.525Z,36.70
2022-07-28T14:17:47.289Z,38.00
2022-07-28T14:20:32.727Z,36.59
2022-07-28T14:23:18.497Z,37.73
2022-07-28T14:26:33.244Z,37.80
2022-07-28T14:29:11.522Z,34.41
2022-07-28T14:31:59.197Z,33.86
2022-07-28T14:34:44.847Z,36.26
2022-07-28T14:37:47.077Z,36.85
2022-07-28T14:40:39.783Z,36.85
2022-07-28T14:43:25.751Z,38.36
2022-07-28T14:46:15.115Z,40.00
2022-07-28T14:49:03.651Z,39.24
2022-07-28T14:51:50.317Z,36.56
2022-07-28T14:54:36.020Z,34.91
2022-07-28T14:57:24.993Z,35.49
2022-07-28T15:00:29.758Z,33.62
2022-07-28T15:03:15.190Z,33.48
2022-07-28T15:06:01.780Z,35.60
2022-07-28T15:08:47.206Z,34.78
2022-07-28T15:11:32.928Z,33.60
2022-07-28T15:14:20.438Z,34.86
2022-07-28T15:17:06.895Z,34.80
2022-07-28T15:19:52.236Z,36.64
2022-07-28T15:22:37.602Z,35.49
2022-07-28T15:25:23.100Z,33.80
2022-07-28T15:28:08.501Z,32.00
2022-07-28T15:30:54.449Z,31.21
2022-07-28T15:33:48.217Z,29.68
2022-07-28T15:36:40.803Z,30.21
2022-07-28T15:39:26.206Z,29.12
2022-07-28T15:42:17.065Z,28.59
2022-07-28T15:45:02.440Z,28.58
2022-07-28T15:47:47.559Z,27.25
2022-07-28T15:50:33.089Z,27.38
2022-07-28T15:53:18.860Z,27.39
2022-07-28T15:56:05.034Z,27.40
2022-07-28T15:58:50.641Z,27.27
2022-07-28T16:01:36.102Z,26.67
2022-07-28T16:04:21.497Z,26.38
2022-07-28T16:07:23.324Z,26.56
2022-07-28T16:10:09.025Z,26.10
2022-07-28T16:12:55.993Z,25.87
2022-07-28T16:15:41.581Z,26.51
2022-07-28T16:18:27.221Z,26.50
2022-07-28T16:21:12.733Z,26.61
2022-07-28T16:23:58.267Z,26.30
2022-07-28T16:26:43.630Z,25.89
2022-07-28T16:29:29.186Z,25.20
2022-07-28T16:32:15.195Z,25.54
2022-07-28T16:35:00.937Z,25.26
2022-07-28T16:37:46.283Z,24.78
2022-07-28T16:40:32.513Z,24.68
2022-07-28T16:43:17.808Z,24.94
2022-07-28T16:46:04.354Z,24.28
2022-07-28T16:48:50.059Z,24.49
2022-07-28T16:51:35.731Z,24.56
2022-07-28T16:54:21.258Z,24.58
2022-07-28T16:57:07.228Z,24.51
2022-07-28T16:59:52.918Z,24.30
2022-07-28T17:02:38.329Z,23.94
2022-07-28T17:05:24.771Z,24.11
2022-07-28T17:08:10.695Z,24.57
2022-07-28T17:10:56.657Z,24.57
2022-07-28T17:13:45.410Z,24.83
2022-07-28T17:16:31.238Z,24.28
2022-07-28T17:19:21.288Z,24.33
2022-07-28T17:22:07.342Z,24.40
2022-07-28T17:24:53.282Z,24.12
2022-07-28T17:27:43.366Z,24.04
2022-07-28T17:30:33.439Z,23.81
2022-07-28T17:33:18.938Z,23.63
2022-07-28T17:36:04.309Z,23.60
2022-07-28T17:38:49.897Z,23.29
2022-07-28T17:41:35.364Z,23.14
2022-07-28T17:44:21.551Z,23.15
2022-07-28T17:47:07.364Z,22.95
2022-07-28T17:49:53.101Z,23.08
2022-07-28T17:52:41.217Z,22.89
2022-07-28T17:55:57.601Z,22.90
2022-07-28T17:58:41.331Z,22.94
2022-07-28T18:01:26.726Z,22.84
2022-07-28T18:04:12.314Z,22.74
2022-07-28T18:06:58.121Z,22.61
2022-07-28T18:09:43.417Z,22.72
2022-07-28T18:12:28.977Z,22.74
2022-07-28T18:15:14.519Z,22.60
2022-07-28T18:18:00.437Z,22.62
2022-07-28T18:20:46.863Z,22.48
2022-07-28T18:23:32.155Z,22.18
2022-07-28T18:26:17.807Z,22.08
2022-07-28T18:29:03.510Z,22.10
2022-07-28T18:31:50.544Z,22.03
2022-07-28T18:34:36.059Z,21.96
2022-07-28T18:37:21.510Z,21.80
2022-07-28T18:40:09.191Z,21.60
2022-07-28T18:42:55.621Z,21.62
2022-07-28T18:45:41.320Z,21.42
2022-07-28T18:48:26.815Z,21.29
2022-07-28T18:51:12.190Z,21.13
2022-07-28T18:53:57.707Z,21.06
2022-07-28T18:56:43.451Z,21.00
2022-07-28T18:59:29.005Z,20.80
2022-07-28T19:02:14.888Z,20.76
2022-07-28T19:05:00.646Z,20.64
2022-07-28T19:07:46.502Z,20.48
2022-07-28T19:10:32.594Z,20.34
2022-07-28T19:13:18.225Z,20.15
2022-07-28T19:16:04.174Z,20.05
2022-07-28T19:18:50.014Z,20.01
2022-07-28T19:21:35.697Z,19.85
2022-07-28T19:24:21.433Z,19.83
2022-07-28T19:27:07.105Z,19.73
2022-07-28T19:29:52.521Z,19.67
2022-07-28T19:32:41.884Z,19.47
2022-07-28T19:35:27.310Z,19.37
2022-07-28T19:38:13.045Z,19.34
2022-07-28T19:40:58.549Z,19.28
2022-07-28T19:43:43.975Z,19.29
2022-07-28T19:46:29.663Z,19.05
2022-07-28T19:49:16.814Z,19.02
2022-07-28T19:52:02.594Z,18.89
2022-07-28T19:54:51.143Z,18.84
2022-07-28T19:57:36.789Z,18.68
2022-07-28T20:00:22.462Z,18.65
2022-07-28T20:03:13.477Z,18.49
2022-07-28T20:06:14.379Z,18.44
2022-07-28T20:09:01.490Z,18.26
2022-07-28T20:11:47.950Z,18.23
2022-07-28T20:14:33.373Z,18.10
2022-07-28T20:17:37.001Z,18.05
2022-07-28T20:20:23.540Z,17.83
2022-07-28T20:23:08.999Z,17.80
2022-07-28T20:25:54.555Z,17.76
2022-07-28T20:28:40.306Z,17.75
2022-07-28T20:31:25.971Z,17.61
2022-07-28T20:34:12.994Z,17.63
2022-07-28T20:36:58.624Z,17.60
2022-07-28T20:39:45.425Z,17.52
2022-07-28T20:42:31.568Z,17.37
2022-07-28T20:45:17.065Z,17.44
2022-07-28T20:48:02.667Z,17.36
2022-07-28T20:50:48.080Z,17.21
2022-07-28T20:53:33.910Z,17.09
2022-07-28T20:56:19.613Z,17.12
2022-07-28T20:59:08.044Z,17.04
2022-07-28T21:01:53.594Z,17.04
2022-07-28T21:04:39.858Z,16.93
2022-07-28T21:08:00.459Z,16.82
2022-07-28T21:10:30.882Z,16.76
2022-07-28T21:13:16.478Z,16.85
2022-07-28T21:16:02.264Z,16.71
2022-07-28T21:18:47.859Z,16.61
2022-07-28T21:21:33.252Z,16.60
2022-07-28T21:24:19.140Z,16.59
2022-07-28T21:27:04.802Z,16.43
2022-07-28T21:32:36.285Z,16.43
2022-07-28T21:35:22.160Z,16.49
2022-07-28T21:38:07.721Z,16.36
2022-07-28T21:40:52.974Z,16.34
2022-07-28T21:43:38.580Z,16.31
2022-07-28T21:46:25.592Z,16.18
2022-07-28T21:49:11.432Z,16.23
2022-07-28T21:51:57.029Z,16.17
2022-07-28T21:54:42.690Z,16.03
2022-07-28T21:57:28.362Z,16.06
2022-07-28T22:00:14.348Z,16.00
2022-07-28T22:03:00.391Z,16.05
2022-07-28T22:05:45.954Z,16.06
2022-07-28T22:08:32.401Z,15.90
2022-07-28T22:11:17.844Z,15.95
2022-07-28T22:14:03.253Z,15.91
2022-07-28T22:16:48.911Z,15.81
2022-07-28T22:19:34.844Z,15.76
2022-07-28T22:22:20.217Z,15.72
2022-07-28T22:25:06.718Z,15.65
2022-07-28T22:27:52.532Z,15.60
2022-07-28T22:30:38.262Z,15.49
2022-07-28T22:33:24.517Z,15.56
2022-07-28T22:36:09.889Z,15.41
2022-07-28T22:38:55.422Z,15.42
2022-07-28T22:41:40.968Z,15.40
2022-07-28T22:44:29.303Z,15.34
2022-07-28T22:47:14.787Z,15.42
2022-07-28T22:50:00.454Z,15.28
2022-07-28T22:52:46.445Z,15.21
2022-07-28T22:55:32.235Z,15.15
2022-07-28T22:58:17.500Z,15.19
2022-07-28T23:01:03.985Z,15.13
2022-07-28T23:03:52.253Z,15.06
2022-07-28T23:06:37.954Z,15.04
2022-07-28T23:09:23.608Z,15.06
2022-07-28T23:12:10.025Z,14.96
2022-07-28T23:14:55.348Z,14.94
2022-07-28T23:17:41.084Z,14.84
2022-07-28T23:20:27.239Z,14.84
2022-07-28T23:23:14.159Z,14.77
2022-07-28T23:25:59.520Z,14.72
2022-07-28T23:28:45.093Z,14.81
2022-07-28T23:31:30.738Z,14.68
2022-07-28T23:34:16.779Z,14.72
2022-07-28T23:37:03.289Z,14.62
2022-07-28T23:39:48.762Z,14.56
2022-07-28T23:42:34.031Z,14.50
2022-07-28T23:45:19.760Z,14.49
2022-07-28T23:48:05.610Z,14.55
2022-07-28T23:50:51.168Z,14.51
2022-07-28T23:53:37.636Z,14.44
2022-07-28T23:56:23.200Z,14.41
2022-07-28T23:59:13.531Z,14.34
